Date,TemperatureHighF,TemperatureAvgF,TemperatureLowF,DewpointHighF,DewpointAvgF,DewpointLowF,HumidityHigh,HumidityAvg,HumidityLow,PressureMaxIn,PressureMinIn,WindSpeedMaxMPH,WindSpeedAvgMPH,GustSpeedMaxMPH,PrecipitationSumIn
2013-1-1,34,26,15,27,17,9,81,69,55,30.06,29.88,5,2,14,0.00
2013-1-2,29,25,19,20,17,13,77,72,66,30.21,30.08,6,3,17,0.00
2013-1-3,25,22,18,20,17,12,84,81,78,30.20,30.10,4,1,9,0.00
2013-1-4,33,33,33,26,26,25,76,74,73,30.01,29.93,13,10,29,0.00
2013-1-5,36,32,30,29,26,23,81,76,70,30.30,30.05,8,3,18,0.03
2013-1-6,37,35,33,33,31,25,88,85,72,30.10,29.89,6,4,19,0.37
2013-1-7,35,31,26,31,24,21,86,77,70,30.40,30.11,6,3,17,0.01
2013-1-8,38,32,24,31,26,21,87,76,70,30.31,30.17,6,2,16,0.05
2013-1-9,45,36,22,36,30,18,91,78,60,30.38,29.99,12,5,45,0.08
2013-1-10,43,37,33,30,28,26,81,69,57,30.60,30.38,4,1,11,0.00
2013-1-11,51,44,36,46,37,26,86,76,60,30.37,29.84,6,2,15,0.15
2013-1-12,60,53,46,51,47,43,90,82,70,29.98,29.92,11,3,21,0.46
2013-1-13,65,54,46,56,49,44,91,86,72,29.92,29.72,9,3,21,0.55
2013-1-14,46,34,29,44,27,20,92,74,62,30.40,29.74,8,4,19,0.09
2013-1-15,34,30,28,22,21,20,78,71,60,30.42,30.16,4,1,11,0.00
2013-1-16,39,34,29,30,26,21,77,72,62,30.16,29.79,9,3,27,0.00
2013-1-17,36,27,17,30,20,13,84,74,68,30.18,29.87,9,3,21,0.00
2013-1-18,33,23,16,20,14,9,85,69,57,30.46,30.04,8,4,19,0.00
2013-1-19,49,42,34,32,27,20,65,55,44,30.04,29.57,10,6,27,0.01
2013-1-20,49,31,20,35,19,10,75,60,46,30.10,29.47,15,8,40,0.00
2013-1-21,20,18,13,10,7,1,70,64,57,30.08,29.95,6,3,16,0.00
2013-1-22,14,10,7,1,-2,-4,68,57,51,30.23,29.94,9,5,22,0.00
2013-1-23,17,12,7,8,1,-3,73,61,46,30.25,30.13,4,2,13,0.00
2013-1-24,18,13,6,12,5,0,84,73,60,30.56,30.11,6,1,14,0.00
2013-1-25,20,13,6,11,6,0,85,74,59,30.53,30.10,3,0,8,0.00
2013-1-26,28,19,10,16,12,5,84,74,57,30.42,30.11,2,0,7,0.04
2013-1-27,31,23,11,20,16,7,88,75,57,30.57,30.35,3,1,11,0.00
2013-1-28,44,36,26,42,33,17,92,86,68,30.33,29.84,8,3,18,0.53
2013-1-29,56,45,36,53,42,34,96,91,89,30.04,29.69,5,2,15,0.55
2013-1-30,66,60,50,56,52,45,90,75,62,29.68,29.17,11,6,29,0.19
2013-1-31,30,26,23,19,15,12,72,61,50,29.73,29.43,15,9,31,0.17
2013-2-1,25,21,19,16,13,10,81,71,57,30.20,29.73,8,5,20,0.00
2013-2-2,22,19,15,16,13,8,85,79,67,30.20,29.98,6,3,17,0.00
2013-2-3,28,19,8,18,12,4,88,77,56,29.99,29.81,5,1,16,0.09
2013-2-4,22,19,15,15,12,8,80,72,60,30.00,29.89,7,3,19,0.00
2013-2-5,30,24,16,23,16,12,85,73,57,29.96,29.84,5,1,17,0.02
2013-2-6,29,26,20,24,17,13,83,70,54,30.36,29.88,7,3,18,0.00
2013-2-7,34,26,18,22,18,13,81,69,57,30.38,30.05,5,2,16,0.01
2013-2-8,34,28,19,32,24,15,89,83,73,30.14,29.75,6,2,16,0.08
2013-2-9,23,18,10,17,14,6,86,83,78,30.43,30.14,3,1,9,0.00
2013-2-10,40,25,7,30,18,3,86,75,56,30.42,29.92,4,1,12,0.18
2013-2-11,51,40,33,42,32,26,92,76,55,29.92,29.55,14,6,33,0.58
2013-2-12,34,33,32,30,27,24,89,78,71,29.98,29.74,10,6,24,0.03
2013-2-13,40,32,22,26,23,18,86,71,54,29.91,29.73,4,1,11,0.00
2013-2-14,41,34,21,34,28,18,89,79,59,29.90,29.76,8,3,25,0.18
2013-2-15,38,32,23,32,24,15,81,70,60,30.08,29.77,10,6,27,0.00
2013-2-16,32,26,20,20,15,10,80,65,49,30.07,29.91,4,1,11,0.00
2013-2-17,22,18,14,18,10,5,84,72,58,30.24,29.91,6,3,19,0.00
2013-2-18,36,25,10,22,12,5,83,61,38,30.29,29.86,4,1,11,0.00
2013-2-19,44,35,25,37,27,18,88,74,58,29.86,29.53,12,6,28,0.41
2013-2-20,25,22,20,19,14,11,80,69,58,30.12,29.76,10,7,26,0.00
2013-2-21,23,22,21,16,15,13,76,75,70,30.41,30.10,6,1,16,0.00
2013-2-22,36,30,22,31,23,16,85,76,59,30.40,29.98,5,2,14,0.05
2013-2-23,40,35,32,32,28,25,81,78,71,29.98,29.87,5,3,15,0.00
2013-2-24,33,32,30,27,25,23,84,77,70,30.09,29.85,6,3,14,0.02
2013-2-25,37,32,24,29,26,20,87,78,69,30.23,30.09,4,1,9,0.00
2013-2-26,45,36,24,33,27,22,89,71,49,30.22,29.69,7,3,25,0.93
2013-2-27,37,36,34,34,32,32,91,89,85,29.70,29.56,7,2,21,0.55
2013-2-28,36,34,33,33,32,30,91,89,85,29.76,29.53,4,2,13,0.29
2013-3-1,33,30,26,30,24,20,89,80,74,29.97,29.76,6,3,15,0.02
2013-3-2,27,25,22,21,19,17,81,78,74,29.98,29.91,5,2,12,0.00
2013-3-3,25,24,22,21,19,17,88,81,79,29.95,29.94,4,3,10,0.00
2013-3-4,33,26,19,24,19,14,82,74,60,30.08,29.95,7,4,17,0.00
2013-3-5,37,29,21,24,21,17,82,73,57,30.11,29.94,7,2,17,0.02
2013-3-6,43,34,26,32,27,21,83,76,59,30.15,29.93,6,3,17,0.00
2013-3-7,41,36,30,32,30,26,88,80,64,30.28,30.14,3,1,11,0.01
2013-3-8,44,36,28,30,27,23,90,72,47,30.41,30.27,6,2,15,0.04
2013-3-9,50,37,23,33,28,20,90,72,48,30.43,30.17,3,1,10,0.01
2013-3-10,69,54,37,37,30,26,66,42,29,30.17,29.92,7,3,20,0.00
2013-3-11,67,57,48,44,33,30,87,43,31,29.92,29.60,9,4,21,0.15
2013-3-12,47,38,34,43,33,29,89,82,73,29.91,29.67,8,5,25,0.10
2013-3-13,36,32,24,30,26,16,86,76,59,30.00,29.84,10,5,23,0.04
2013-3-14,36,28,23,17,14,8,70,56,33,30.11,30.00,8,5,24,0.03
2013-3-15,34,30,27,29,23,17,85,76,63,30.07,29.83,7,3,22,0.00
2013-3-17,23,23,22,11,10,10,60,59,57,30.33,30.33,0,0,3,0.00
2013-3-18,37,29,21,32,19,9,85,67,46,30.33,29.66,6,3,18,0.04
2013-3-19,38,32,26,34,26,18,89,78,66,29.85,29.64,11,6,26,0.21
2013-3-20,35,29,24,22,20,16,84,70,54,29.85,29.81,9,4,23,0.07
2013-3-21,30,26,21,26,19,13,84,74,55,29.84,29.73,7,4,20,0.00
2013-3-22,32,29,26,27,24,20,85,81,75,29.97,29.77,7,4,20,0.03
2013-3-23,42,34,29,28,24,21,80,68,48,30.04,29.94,5,2,14,0.02
2013-3-24,41,33,22,28,23,18,96,68,50,30.04,29.70,7,2,18,0.00
2013-3-25,42,37,32,31,26,24,78,66,54,29.75,29.60,6,3,16,0.00
2013-3-26,47,38,32,35,30,27,84,73,57,29.97,29.75,6,2,16,0.00
2013-3-27,42,35,32,33,30,26,90,84,70,30.08,29.95,6,2,17,0.12
2013-3-28,34,34,34,32,31,31,90,90,89,30.08,30.07,2,1,5,0.00
2013-3-30,52,43,36,26,24,23,60,47,36,30.12,30.02,5,1,13,0.00
2013-3-31,60,46,36,42,32,24,89,60,35,30.02,29.59,8,2,22,0.09
2013-4-1,46,36,28,41,26,16,89,67,43,29.98,29.56,11,5,24,0.03
2013-4-2,34,30,25,25,18,15,75,63,50,30.14,29.98,10,5,25,0.00
2013-4-3,39,31,27,24,18,15,72,59,38,30.41,30.14,7,3,18,0.00
2013-4-4,51,36,24,22,19,15,80,52,27,30.36,29.93,5,2,15,0.00
2013-4-5,45,38,28,29,22,15,70,54,44,30.17,29.88,7,2,17,0.00
2013-4-6,53,38,20,27,19,14,86,49,24,30.31,30.00,5,1,13,0.00
2013-4-7,64,54,44,45,34,21,73,50,31,30.02,29.69,12,6,28,0.00
2013-4-8,65,48,31,46,36,27,89,65,42,30.09,29.78,4,2,14,0.06
2013-4-9,49,48,48,47,46,45,91,91,89,29.94,29.89,5,2,15,1.16
2013-4-10,49,45,40,47,42,37,95,91,89,30.01,29.83,7,3,21,0.79
2013-4-11,40,36,34,37,32,30,89,86,75,30.09,29.88,7,5,24,0.62
2013-4-12,53,40,35,51,37,32,93,89,82,29.87,29.47,10,5,26,0.71
2013-4-13,44,40,38,36,35,33,86,80,68,29.94,29.77,11,6,28,0.00
2013-4-14,50,42,36,34,30,27,84,63,46,30.16,29.94,6,3,17,0.00
2013-4-15,74,58,39,49,41,29,72,56,40,30.13,29.95,8,3,21,0.00
2013-4-16,64,57,46,56,49,43,92,78,57,30.21,29.92,10,5,26,0.26
2013-4-17,59,48,35,43,36,32,91,65,44,30.34,30.16,5,2,21,0.00
2013-4-18,82,58,48,61,44,33,68,60,47,30.17,29.76,11,4,25,0.00
2013-4-20,40,37,32,28,24,21,75,59,49,30.41,30.00,11,5,23,0.02
2013-4-21,48,36,24,29,24,18,86,61,44,30.67,30.42,5,1,15,0.00
2013-4-23,69,63,55,39,37,36,48,38,31,30.01,29.88,2,1,6,0.00
2013-4-24,64,54,38,55,43,33,90,70,39,30.03,29.59,8,4,20,0.57
2013-4-25,56,44,37,40,35,29,88,71,39,30.31,30.03,8,3,19,0.03
2013-4-26,56,45,32,40,31,20,92,61,27,30.48,30.31,5,1,14,0.01
2013-4-27,72,55,35,42,33,24,74,46,25,30.42,30.17,4,1,9,0.00
2013-4-28,74,60,49,50,42,35,74,54,29,30.17,29.95,8,3,20,0.07
2013-4-29,66,59,52,54,50,46,83,72,65,30.00,29.91,6,2,19,0.05
2013-4-30,76,65,57,58,53,50,84,65,47,30.16,30.00,6,2,15,0.00
2013-5-1,74,62,58,56,50,48,74,66,52,30.28,30.16,4,2,12,0.00
2013-5-2,82,73,63,48,42,34,44,33,18,30.36,30.19,4,2,14,0.00
2013-5-3,81,66,53,48,42,38,59,43,30,30.23,30.12,4,1,13,0.00
2013-5-4,73,60,50,44,40,36,71,51,28,30.23,30.12,3,1,11,0.00
2013-5-5,78,64,46,49,44,40,82,52,28,30.17,30.01,5,2,16,0.00
2013-5-7,80,72,64,55,52,50,62,52,36,29.99,29.95,5,2,16,0.00
2013-5-8,70,62,56,60,54,48,90,74,60,29.99,29.90,2,0,9,0.13
2013-5-9,64,58,52,58,55,48,94,87,71,29.94,29.85,4,1,10,0.28
2013-5-10,77,60,47,62,54,45,93,83,57,29.93,29.69,6,2,19,0.46
2013-5-11,60,50,47,58,46,43,92,87,76,29.77,29.65,7,4,19,0.13
2013-5-12,51,44,39,47,36,30,88,75,58,29.96,29.69,11,5,26,0.22
2013-5-13,47,41,35,36,33,30,81,71,62,30.15,29.95,7,4,20,0.00
2013-5-14,59,49,34,40,34,30,88,60,36,30.16,29.90,4,2,12,0.00
2013-5-15,77,62,52,58,48,41,74,62,41,29.90,29.53,11,3,26,0.00
2013-5-16,74,63,50,53,47,33,86,58,27,30.00,29.71,6,2,17,0.00
2013-5-17,67,56,41,47,41,37,89,60,42,30.19,29.99,3,1,14,0.00
2013-5-18,75,64,55,50,44,39,58,50,38,30.21,30.08,5,2,14,0.00
2013-5-19,85,71,54,64,57,46,89,64,45,30.09,29.92,4,1,10,0.00
2013-5-20,88,76,63,67,63,58,85,65,44,29.99,29.80,6,1,18,0.00
2013-5-21,88,75,66,69,64,58,84,69,51,29.90,29.70,5,2,17,0.01
2013-5-22,87,74,63,67,63,59,91,70,46,29.75,29.60,6,2,17,0.14
2013-5-23,72,63,45,63,57,42,92,81,67,29.90,29.65,6,3,21,0.43
2013-5-24,52,44,40,42,37,35,90,75,55,30.24,29.91,5,3,16,0.12
2013-5-25,60,51,40,39,36,34,86,59,42,30.26,30.18,6,3,17,0.00
2013-5-26,65,54,44,45,38,32,87,58,30,30.23,30.16,6,2,17,0.00
2013-5-27,73,58,38,46,39,33,96,56,26,30.27,30.10,3,1,10,0.00
2013-5-28,65,60,53,62,53,40,93,81,51,30.13,29.88,4,1,15,1.75
2013-5-29,79,70,64,64,62,59,93,77,58,29.99,29.85,7,3,18,0.41
2013-5-30,84,73,60,67,62,56,91,70,56,30.09,29.99,5,2,16,0.00
2013-5-31,88,76,63,68,64,59,91,67,45,30.03,29.89,6,2,19,0.01
2013-6-1,86,74,66,70,66,62,92,77,54,29.92,29.72,7,3,25,0.63
2013-6-2,73,68,58,66,61,50,93,80,62,29.87,29.65,9,4,26,1.43
2013-6-3,62,56,48,50,46,41,86,70,58,30.03,29.88,6,2,19,0.00
2013-6-4,69,58,44,48,42,37,87,59,31,30.16,30.03,3,1,14,0.00
2013-6-5,71,59,48,51,45,39,89,63,42,30.19,30.04,6,2,18,0.00
2013-6-6,60,58,54,58,52,40,92,82,52,30.03,29.79,5,2,18,1.85
2013-6-7,62,59,56,56,55,53,92,89,79,29.84,29.79,2,1,9,0.01
2013-6-8,63,59,57,58,56,53,93,88,78,30.07,29.81,5,1,12,0.05
2013-6-9,78,66,50,60,55,47,92,69,44,30.18,30.06,3,1,10,0.00
2013-6-10,76,68,64,66,62,56,89,81,69,30.06,29.67,5,1,14,0.15
2013-6-11,73,65,60,63,60,58,93,84,64,29.83,29.63,5,2,21,0.23
2013-6-12,80,69,54,60,56,51,93,64,43,29.90,29.72,3,1,9,0.00
2013-6-13,70,63,58,62,58,55,92,85,66,29.77,29.46,5,2,18,0.92
2013-6-14,74,63,54,61,57,51,93,81,58,29.98,29.76,5,1,12,0.00
2013-6-15,72,63,51,57,52,47,93,69,44,30.05,29.92,5,2,14,0.01
2013-6-16,73,66,62,65,60,54,91,80,70,29.93,29.69,6,3,18,0.28
2013-6-17,76,69,62,64,60,55,91,73,52,29.90,29.79,6,2,16,0.17
2013-6-18,70,64,56,58,53,47,88,68,45,30.00,29.85,5,2,15,0.00
2013-6-19,70,61,51,50,46,40,90,60,36,30.17,30.00,4,1,14,0.00
2013-6-20,81,65,46,52,47,41,90,56,25,30.23,30.16,4,1,13,0.00
2013-6-21,85,70,51,57,51,46,88,55,32,30.24,30.13,3,1,10,0.00
2013-6-22,87,76,63,68,63,55,78,65,50,30.13,29.96,6,2,20,0.00
2013-6-23,87,78,69,70,67,65,90,71,51,30.03,29.95,6,2,17,0.34
2013-6-24,83,77,72,68,66,62,78,68,58,30.02,29.90,7,3,23,0.00
2013-6-25,77,74,70,68,66,63,86,76,69,29.91,29.76,7,3,19,0.13
2013-6-26,79,73,68,69,66,64,88,78,63,29.82,29.75,6,3,17,0.00
2013-6-27,81,71,65,70,66,62,91,83,65,29.77,29.60,2,0,9,0.07
2013-6-28,73,67,63,67,64,61,93,90,76,29.60,29.46,4,0,13,1.17
2013-6-29,77,68,62,66,62,58,93,82,64,29.67,29.45,4,1,12,0.13
2013-6-30,79,70,60,66,61,57,93,75,60,29.88,29.67,3,1,12,0.00
2013-7-1,71,66,60,62,61,58,90,84,73,30.03,29.88,5,2,18,0.15
2013-7-2,78,68,59,68,62,57,91,83,67,30.05,29.98,4,1,15,0.00
2013-7-3,90,77,65,72,68,62,93,76,51,30.10,30.03,3,1,10,0.18
2013-7-4,85,76,70,72,69,67,92,81,58,30.15,30.07,4,1,11,0.06
2013-7-5,83,75,71,72,69,66,90,80,64,30.09,30.03,5,2,14,0.01
2013-7-6,86,76,67,71,68,64,92,77,57,30.11,29.98,4,1,10,0.00
2013-7-7,82,75,72,70,68,66,92,79,63,30.01,29.91,6,3,19,0.06
2013-7-8,82,75,71,71,68,66,90,80,59,30.02,29.94,5,2,16,0.00
2013-7-9,83,75,70,72,69,67,92,83,67,30.01,29.86,4,1,10,0.15
2013-7-10,83,76,71,75,70,62,92,81,71,29.86,29.67,7,4,25,0.00
2013-7-11,78,70,63,62,58,56,85,66,49,29.99,29.81,3,2,13,0.00
2013-7-12,76,68,59,65,61,56,92,79,65,30.15,29.99,3,1,10,0.00
2013-7-13,86,73,60,70,64,56,91,75,54,30.20,30.13,5,1,13,0.00
2013-7-14,93,80,67,73,69,64,92,70,47,30.26,30.19,3,1,8,0.00
2013-7-15,91,81,73,74,70,61,89,71,43,30.26,30.19,3,1,9,0.00
2013-7-16,93,82,70,76,71,65,93,72,40,30.24,30.16,3,1,11,0.00
2013-7-17,90,82,77,78,75,72,89,79,57,30.20,30.05,6,3,17,0.00
2013-7-18,90,82,77,77,74,72,91,78,62,30.07,29.91,7,3,16,0.00
2013-7-19,88,82,69,75,72,65,92,71,54,29.91,29.68,9,5,27,1.67
2013-7-20,82,73,66,71,67,62,93,82,55,29.86,29.67,7,2,20,0.46
2013-7-21,81,73,65,64,61,59,84,69,52,29.96,29.85,3,1,11,0.00
2013-7-22,80,71,60,68,62,56,90,75,59,29.96,29.73,4,1,11,0.00
2013-7-23,81,72,63,70,66,58,93,80,66,29.73,29.59,6,2,19,0.33
2013-7-24,69,63,54,57,51,49,83,67,51,30.01,29.70,7,2,18,0.00
2013-7-25,76,65,50,57,52,47,91,66,43,30.10,30.01,5,1,16,0.00
2013-7-26,82,68,51,60,54,48,89,65,40,30.10,29.96,3,1,10,0.00
2013-7-27,80,70,61,65,61,55,89,73,54,29.96,29.76,5,1,16,0.14
2013-7-28,74,68,64,64,58,53,89,71,54,29.94,29.75,5,2,15,0.01
2013-7-29,71,65,60,60,57,54,90,76,63,30.12,29.93,6,2,17,0.16
2013-7-30,77,67,56,62,57,53,90,73,56,30.18,30.11,5,1,12,0.00
2013-7-31,82,70,56,64,57,53,91,67,39,30.13,29.89,3,1,10,0.00
2013-8-1,75,70,66,67,63,60,92,79,69,29.89,29.74,5,2,18,0.59
2013-8-2,78,68,56,66,60,53,94,77,54,29.86,29.79,8,3,21,0.53
2013-8-3,76,69,59,62,59,53,92,71,49,29.92,29.80,6,2,16,0.00
2013-8-4,73,65,56,58,54,48,86,67,48,30.06,29.92,5,2,18,0.00
2013-8-5,76,63,49,56,51,45,92,67,43,30.10,29.99,3,1,12,0.00
2013-8-6,83,69,56,60,56,51,88,65,41,30.02,29.92,3,1,10,0.00
2013-8-7,84,75,67,69,64,59,84,69,54,29.94,29.80,5,2,16,0.00
2013-8-8,86,75,66,72,68,63,93,79,61,29.92,29.84,4,1,19,0.75
2013-8-9,79,71,64,69,64,58,92,80,61,29.91,29.82,4,2,12,0.37
2013-8-10,75,68,60,64,56,46,88,67,41,30.06,29.91,5,2,13,0.00
2013-8-11,78,67,52,59,55,50,93,68,45,30.11,30.01,4,1,12,0.00
2013-8-12,78,70,61,64,60,55,85,70,53,30.02,29.82,5,2,16,0.00
2013-8-13,71,66,58,66,58,47,93,75,54,29.87,29.72,5,2,17,0.38
2013-8-14,71,61,54,52,49,45,85,65,40,30.08,29.86,6,2,19,0.00
2013-8-15,75,64,51,57,51,46,86,64,45,30.12,30.05,7,2,19,0.00
2013-8-16,78,65,52,60,54,48,92,69,45,30.18,30.09,3,1,11,0.00
2013-8-17,84,69,54,59,54,50,91,63,36,30.26,30.18,3,1,9,0.00
2013-8-18,84,71,56,62,57,52,88,65,42,30.21,30.07,3,0,10,0.00
2013-8-19,82,70,58,66,61,56,93,73,46,30.09,30.01,4,1,14,0.00
2013-8-20,82,72,58,67,62,55,90,74,54,30.11,30.03,5,2,15,0.00
2013-8-21,85,73,60,67,62,56,91,71,50,30.13,29.99,5,1,14,0.00
2013-8-22,79,72,65,70,65,56,91,80,64,30.00,29.89,6,2,22,0.76
2013-8-23,78,67,55,61,55,51,93,68,45,30.17,29.97,4,1,14,0.00
2013-8-24,79,66,51,57,52,48,91,65,38,30.33,30.18,3,1,13,0.00
2013-8-25,82,70,53,62,56,49,91,64,39,30.31,30.11,5,2,14,0.00
2013-8-26,78,73,70,69,66,60,92,81,65,30.14,29.91,7,4,20,0.91
2013-8-27,84,75,70,74,70,67,93,86,66,29.91,29.83,4,2,14,0.08
2013-8-28,84,75,69,73,70,66,93,83,63,29.92,29.80,4,1,14,0.34
2013-8-29,87,75,64,71,66,62,94,76,54,30.01,29.92,2,1,9,0.00
2013-8-30,82,74,63,70,66,60,94,79,62,29.97,29.70,4,1,14,0.01
2013-8-31,83,76,71,71,69,66,89,80,64,29.80,29.67,7,2,19,0.12
2013-9-1,85,75,67,72,68,64,92,80,58,29.79,29.71,3,1,10,0.07
2013-9-2,80,72,64,72,66,55,92,81,64,29.77,29.65,5,2,18,0.00
2013-9-3,69,64,60,59,56,53,81,75,70,29.94,29.75,4,2,12,0.00
2013-9-4,75,68,58,65,58,51,87,71,49,29.98,29.93,8,3,22,0.04
2013-9-5,66,60,50,62,49,41,93,70,42,30.22,29.95,5,1,13,0.00
2013-9-6,70,58,42,50,45,39,92,66,35,30.28,30.08,4,1,11,0.00
2013-9-7,68,61,56,62,54,48,90,78,60,30.08,29.86,5,1,14,0.35
2013-9-8,68,63,50,65,53,45,92,71,47,30.09,29.84,5,2,18,0.01
2013-9-9,75,62,48,64,52,43,88,72,54,30.12,29.93,4,1,13,0.00
2013-9-10,85,79,70,73,69,64,86,74,65,29.97,29.87,8,4,22,0.04
2013-9-11,87,81,70,73,71,65,84,72,59,29.99,29.87,7,3,21,0.29
2013-9-12,74,69,62,68,65,55,91,85,74,29.91,29.70,5,2,18,0.17
2013-9-13,62,55,50,56,49,44,88,81,71,30.03,29.75,5,2,13,0.03
2013-9-14,65,55,48,48,44,40,80,66,41,30.12,30.02,4,1,14,0.00
2013-9-15,68,58,44,54,48,41,88,71,56,30.14,30.03,5,2,18,0.17
2013-9-16,56,51,40,54,47,36,93,87,74,30.37,30.05,4,1,12,0.04
2013-9-17,67,51,36,47,41,33,93,72,41,30.48,30.26,4,1,13,0.01
2013-9-18,76,58,41,53,46,38,90,67,40,30.27,30.08,3,1,8,0.00
2013-9-19,78,63,48,61,54,46,91,75,53,30.11,29.98,4,1,11,0.00
2013-9-20,84,70,55,68,61,52,93,76,56,29.99,29.70,5,2,15,0.00
2013-9-21,75,63,54,67,60,50,93,89,72,29.74,29.59,5,1,21,3.38
2013-9-22,58,53,49,49,45,41,88,73,60,30.03,29.74,4,2,15,0.00
2013-9-23,61,53,44,44,42,40,88,68,47,30.15,30.03,4,1,12,0.00
2013-9-24,68,52,38,51,43,35,93,74,49,30.16,30.01,2,0,8,0.00
2013-9-25,72,55,40,53,45,37,92,72,44,30.01,29.92,3,0,9,0.00
2013-9-26,71,57,42,55,48,40,92,74,50,30.13,29.98,3,1,11,0.00
2013-9-27,70,59,46,57,51,43,93,77,58,30.24,30.13,3,1,11,0.00
2013-9-28,77,63,47,57,52,44,93,70,46,30.26,30.13,3,1,11,0.00
2013-9-29,78,63,48,58,52,44,92,70,48,30.13,29.95,4,1,11,0.00
2013-9-30,74,65,58,62,58,53,88,77,62,29.98,29.92,4,1,15,0.00
2013-10-1,71,66,59,62,60,56,91,82,72,29.99,29.89,5,2,15,0.03
2013-10-2,74,67,56,63,61,52,90,81,67,30.07,29.90,5,2,13,0.00
2013-10-3,72,61,45,56,49,43,93,68,38,30.11,29.98,2,0,8,0.03
2013-10-4,71,67,61,68,64,57,93,90,83,30.03,29.96,4,1,12,1.01
2013-10-5,67,62,60,63,59,57,94,90,86,30.06,29.97,5,1,13,0.54
2013-10-6,82,70,60,71,64,57,94,83,63,29.96,29.64,4,1,13,0.20
2013-10-7,76,60,48,64,53,44,91,79,63,30.05,29.62,9,4,27,1.20
2013-10-8,66,54,42,51,45,39,93,74,49,30.33,30.05,2,0,8,0.00
2013-10-9,71,55,43,49,44,39,89,70,40,30.38,30.25,2,0,8,0.00
2013-10-10,71,55,41,48,42,37,91,64,35,30.26,30.12,3,1,11,0.00
2013-10-11,73,57,45,55,47,41,91,71,38,30.15,30.08,4,1,14,0.00
2013-10-12,78,60,42,55,45,40,92,63,29,30.17,30.08,3,1,13,0.00
2013-10-13,70,63,54,60,54,42,92,73,50,30.24,30.13,4,1,11,0.32
2013-10-14,67,57,46,60,49,42,92,78,51,30.33,30.23,4,1,12,0.14
2013-10-15,71,57,45,58,51,42,91,79,57,30.27,29.91,3,1,13,0.00
2013-10-16,70,63,56,60,56,48,91,77,62,29.91,29.72,7,3,17,0.68
2013-10-17,62,56,52,52,49,46,91,78,62,29.86,29.67,4,1,10,0.66
2013-10-18,60,54,48,48,44,39,87,69,47,29.89,29.71,7,4,21,0.01
2013-10-19,59,53,44,49,45,39,89,75,59,29.87,29.63,5,2,14,0.50
2013-10-20,53,48,43,46,41,36,89,77,66,29.96,29.77,6,2,16,0.04
2013-10-21,66,55,45,50,42,39,88,64,37,29.96,29.78,8,3,20,0.27
2013-10-22,50,46,41,48,35,29,91,68,53,29.85,29.74,9,3,25,0.90
2013-10-23,46,42,38,40,36,30,89,79,63,29.83,29.71,7,1,22,0.07
2013-10-24,48,41,35,35,33,30,85,74,54,30.03,29.80,7,3,17,0.00
2013-10-25,51,43,37,39,35,31,90,75,58,30.19,30.03,5,2,14,0.01
2013-10-26,46,43,38,40,35,30,88,73,57,30.11,29.77,10,5,29,0.88
2013-10-27,49,43,38,38,35,32,88,74,55,30.05,29.83,5,2,14,0.00
2013-10-28,49,44,30,39,32,22,77,63,45,30.39,30.03,4,2,14,0.00
2013-10-29,50,40,28,33,29,23,86,65,43,30.46,30.30,3,0,9,0.00
2013-10-30,62,48,39,41,38,33,88,69,44,30.29,30.08,2,0,8,0.01
2013-10-31,67,57,44,59,52,38,93,83,69,30.07,29.33,8,3,23,1.66
2013-11-1,65,60,48,58,53,43,90,79,75,29.65,29.13,12,7,34,0.32
2013-11-2,50,45,38,47,41,35,91,87,81,30.02,29.58,4,1,14,0.25
2013-11-3,40,34,24,35,25,20,88,71,52,30.54,30.02,3,1,10,0.00
2013-11-4,43,34,23,25,22,20,89,65,42,30.65,30.44,5,1,12,0.00
2013-11-5,61,46,30,39,31,23,76,56,41,30.46,30.31,4,1,13,0.00
2013-11-6,67,57,49,55,44,31,91,62,48,30.31,29.79,8,4,19,0.61
2013-11-7,56,44,39,53,36,29,91,73,59,30.01,29.78,7,3,17,0.21
2013-11-8,43,39,35,33,30,28,84,70,57,30.24,29.97,5,2,15,0.01
2013-11-9,52,45,36,45,33,27,86,64,45,30.23,29.78,7,3,18,0.13
2013-11-10,51,45,39,43,34,30,76,67,57,30.19,29.78,9,5,23,0.01
2013-11-11,46,39,30,40,32,24,89,78,62,30.19,29.93,8,3,22,0.58
2013-11-12,34,30,26,25,21,16,79,68,55,30.42,30.14,5,2,15,0.03
2013-11-13,40,33,26,31,24,18,81,68,58,30.44,30.11,10,5,31,0.00
2013-11-14,45,43,39,32,28,24,70,58,52,30.12,30.01,11,9,29,0.00
2013-11-15,45,45,45,28,28,28,52,52,52,30.11,30.05,9,9,23,0.00
2013-11-16,55,47,45,44,32,28,67,56,52,30.23,29.98,9,7,23,0.00
2013-11-17,65,59,53,56,52,44,87,76,67,29.98,29.31,12,6,29,0.51
2013-11-18,55,46,37,47,36,28,78,68,57,29.95,29.37,13,9,34,0.01
2013-11-19,39,35,24,29,24,19,83,66,54,30.47,29.95,7,3,18,0.00
2013-11-20,44,32,21,26,21,17,88,67,43,30.57,30.41,6,2,15,0.00
2013-11-21,46,39,30,38,28,15,87,64,47,30.42,30.23,5,1,13,0.05
2013-11-22,49,43,33,46,40,26,92,88,73,30.23,30.00,6,2,17,0.43
2013-11-23,35,29,21,26,20,9,80,68,49,30.25,30.05,10,5,26,0.00
2013-11-24,26,21,16,15,12,8,82,68,51,30.46,30.25,7,3,17,0.00
2013-11-25,37,29,20,27,16,11,83,59,37,30.42,30.11,9,4,26,0.00
2013-11-26,37,35,33,31,29,25,90,79,70,30.14,29.82,7,2,18,0.01
2013-11-27,33,31,24,31,26,18,91,83,67,29.96,29.68,5,1,16,0.06
2013-11-28,29,24,20,22,18,15,87,78,57,30.43,29.96,4,1,10,0.00
2013-11-29,31,24,17,22,17,11,87,74,58,30.74,30.42,2,0,6,0.01
2013-11-30,37,27,15,25,18,10,81,68,57,30.72,30.19,5,2,12,0.06
2013-12-1,42,37,31,33,29,25,81,74,64,30.19,29.95,4,1,11,0.45
2013-12-2,39,36,27,34,32,24,88,82,77,29.94,29.87,2,0,7,0.09
2013-12-3,42,32,22,30,26,19,91,79,59,30.00,29.92,3,1,11,0.00
2013-12-4,54,44,35,42,37,29,90,78,64,30.00,29.82,3,1,9,0.03
2013-12-5,62,52,40,53,44,32,84,76,68,30.02,29.70,9,5,23,0.01
2013-12-6,40,34,31,33,26,22,89,73,63,30.27,30.02,5,2,12,0.10
2013-12-7,31,27,22,23,17,12,76,65,52,30.59,30.26,5,3,14,0.00
2013-12-8,29,25,18,22,16,10,83,68,54,30.60,30.17,5,1,14,0.00
2013-12-9,39,34,28,35,29,22,90,80,65,30.17,29.86,11,6,29,0.13
2013-12-10,34,25,22,24,15,9,85,65,52,30.09,29.91,10,5,22,0.00
2013-12-11,27,23,17,17,13,7,73,65,56,30.32,30.09,9,5,22,0.00
2013-12-12,20,17,13,16,10,3,83,73,59,30.35,30.18,9,4,23,0.00
2013-12-13,20,20,16,16,15,9,88,82,76,30.41,30.18,3,2,9,0.00
2013-12-14,18,16,14,14,11,6,88,80,68,30.43,29.75,6,4,19,0.00
2013-12-15,26,22,18,22,18,11,89,83,71,29.90,29.65,9,4,22,0.00
2013-12-16,22,16,8,14,9,3,86,76,69,30.19,29.91,7,2,16,0.00
2013-12-17,28,22,8,25,17,3,89,83,78,30.16,29.92,8,2,16,0.00
2013-12-18,32,29,26,25,23,20,88,78,70,30.07,29.93,17,4,17,0.03
2013-12-19,41,35,28,34,28,19,89,74,64,30.03,29.89,8,3,22,0.44
2013-12-20,43,40,36,41,38,33,92,91,89,29.99,29.76,4,1,11,1.05
2013-12-21,52,42,33,50,40,31,93,92,90,29.85,29.70,7,2,19,1.32
2013-12-22,42,37,33,40,34,30,91,89,84,29.96,29.58,7,2,18,1.56
2013-12-23,40,35,26,36,29,18,88,79,70,30.27,29.95,7,4,18,0.00
2013-12-24,27,22,12,22,16,6,87,78,70,30.52,30.20,5,1,13,0.00
2013-12-25,27,16,3,18,9,-1,84,74,61,30.55,30.21,4,1,11,0.00
2013-12-26,33,28,22,28,22,15,90,78,68,30.29,30.06,7,3,15,0.00
2013-12-27,36,30,22,30,25,15,89,82,76,30.29,30.08,6,3,17,0.00
2013-12-28,43,39,35,35,32,29,85,77,65,30.11,29.93,9,5,24,0.12
2013-12-29,46,42,29,38,31,22,84,68,49,29.93,29.62,6,3,17,0.00
2013-12-30,28,21,18,21,12,8,82,69,57,30.22,29.79,5,2,16,0.00
2013-12-31,23,19,15,20,12,5,87,72,58,30.26,29.97,10,4,23,0.00
2014-1-1,23,18,14,13,9,5,83,70,54,30.42,30.25,5,2,16,0.00
2014-1-2,16,11,6,11,7,1,83,82,80,30.30,30.01,8,5,22,0.00